Time;durP1;ratioP1;P1;durP2;ratioP2;P2;SDS_P1;SDS_P2;PMS_P1;PMS_P2;Temp;Humidity;BMP_temperature;BMP_pressure;BME280_temperature;BME280_humidity;BME280_pressure;Samples;Min_cycle;Max_cycle;Signal;HPM_P1;HPM_P2
2023/05/29 00:01:45;;;;;;;15.25;3.38;;;9.80;99.90;;;;;;5037033;28;20036;-77
2023/05/29 00:04:12;;;;;;;20.05;3.40;;;9.80;99.90;;;;;;5037669;28;20478;-77
2023/05/29 00:06:38;;;;;;;16.02;3.10;;;9.70;99.90;;;;;;5039438;28;20032;-77
2023/05/29 00:09:04;;;;;;;15.73;3.35;;;9.70;99.90;;;;;;5040328;28;20285;-77
2023/05/29 00:11:30;;;;;;;18.35;3.03;;;9.70;99.90;;;;;;5059349;28;20110;-77
2023/05/29 00:13:56;;;;;;;17.33;3.45;;;9.70;99.90;;;;;;5041450;28;20047;-77
2023/05/29 00:16:23;;;;;;;14.43;3.10;;;9.60;99.90;;;;;;5042503;28;20211;-77
2023/05/29 00:18:49;;;;;;;16.95;3.60;;;9.60;99.90;;;;;;5039211;28;20060;-77
2023/05/29 00:21:15;;;;;;;14.52;2.80;;;9.60;99.90;;;;;;5058058;28;20118;-77
2023/05/29 00:23:41;;;;;;;17.70;3.08;;;9.60;99.90;;;;;;5044653;28;20044;-77
2023/05/29 00:26:07;;;;;;;15.20;3.03;;;9.60;99.90;;;;;;5063587;28;20040;-77
2023/05/29 00:28:34;;;;;;;16.75;3.65;;;9.60;99.90;;;;;;5038429;28;20105;-77
2023/05/29 00:31:00;;;;;;;18.17;3.83;;;9.50;99.90;;;;;;5041533;28;20045;-77
2023/05/29 00:33:26;;;;;;;16.38;3.22;;;9.50;99.90;;;;;;5059307;28;20093;-77
2023/05/29 00:35:52;;;;;;;16.90;3.20;;;9.50;99.90;;;;;;5054550;28;20072;-77
2023/05/29 00:38:17;;;;;;;16.90;3.70;;;9.50;99.90;;;;;;5024259;28;20083;-77
2023/05/29 00:40:43;;;;;;;16.73;3.30;;;9.50;99.90;;;;;;5050328;28;20033;-77
2023/05/29 00:43:09;;;;;;;15.02;2.80;;;9.50;99.90;;;;;;5024723;28;20032;-77
2023/05/29 00:45:36;;;;;;;16.23;3.30;;;9.50;99.90;;;;;;5045829;28;20036;-77
2023/05/29 00:48:06;;;;;;;19.88;3.40;;;9.40;99.90;;;;;;5030434;28;20044;-77
2023/05/29 00:50:33;;;;;;;16.55;3.28;;;9.40;99.90;;;;;;5061892;28;20095;-77
2023/05/29 00:53:01;;;;;;;19.58;3.58;;;9.40;99.90;;;;;;5032715;28;20041;-77
2023/05/29 00:55:28;;;;;;;20.00;3.85;;;9.50;99.90;;;;;;5047190;28;20115;-77
2023/05/29 00:57:53;;;;;;;17.83;3.35;;;9.50;99.90;;;;;;5019203;28;20479;-77
2023/05/29 01:00:20;;;;;;;18.02;3.45;;;9.50;99.90;;;;;;5052146;28;20041;-77
2023/05/29 01:02:47;;;;;;;16.88;3.05;;;9.50;99.90;;;;;;5048832;28;20072;-77
2023/05/29 01:05:14;;;;;;;14.10;3.40;;;9.50;99.90;;;;;;5061300;28;20067;-77
2023/05/29 01:07:41;;;;;;;15.45;3.45;;;9.50;99.90;;;;;;5050160;28;20036;-77
2023/05/29 01:10:08;;;;;;;14.60;2.92;;;9.50;99.90;;;;;;5041721;28;20045;-77
2023/05/29 01:12:57;;;;;;;16.95;3.47;;;9.50;99.90;;;;;;5025267;28;20052;-77
2023/05/29 01:15:32;;;;;;;18.65;3.45;;;9.50;99.90;;;;;;5053261;28;20063;-77
2023/05/29 01:18:04;;;;;;;17.85;3.60;;;9.50;99.90;;;;;;5056988;28;20044;-77
2023/05/29 01:20:42;;;;;;;15.93;3.58;;;9.50;99.90;;;;;;5054848;28;20113;-77
2023/05/29 01:23:37;;;;;;;18.85;4.18;;;9.50;99.90;;;;;;5067467;28;20045;-77
2023/05/29 01:26:22;;;;;;;19.50;3.83;;;9.50;99.90;;;;;;5066718;28;20047;-78
2023/05/29 01:28:51;;;;;;;16.75;3.70;;;9.50;99.90;;;;;;5041966;28;20578;-77
2023/05/29 01:31:25;;;;;;;14.90;3.13;;;9.50;99.90;;;;;;5059849;28;20101;-77
2023/05/29 01:33:59;;;;;;;13.50;2.90;;;9.50;99.90;;;;;;5061447;28;20049;-77
2023/05/29 01:36:26;;;;;;;17.25;3.42;;;9.50;99.90;;;;;;5066318;28;20029;-77
2023/05/29 01:38:53;;;;;;;25.38;4.03;;;9.50;99.90;;;;;;5043264;28;20068;-77
2023/05/29 01:41:21;;;;;;;18.13;3.55;;;9.50;99.90;;;;;;5047541;28;20090;-77
2023/05/29 01:43:48;;;;;;;18.33;3.60;;;9.50;99.90;;;;;;5064944;28;20051;-77
2023/05/29 01:46:15;;;;;;;18.60;3.78;;;9.50;99.90;;;;;;5035499;28;20090;-77
2023/05/29 01:48:42;;;;;;;16.60;3.53;;;9.50;99.90;;;;;;5049128;28;20379;-77
2023/05/29 01:51:08;;;;;;;21.52;4.30;;;9.50;99.90;;;;;;5050720;28;20037;-77
2023/05/29 01:53:34;;;;;;;20.42;3.47;;;9.50;99.90;;;;;;5058990;28;20393;-77
2023/05/29 01:56:00;;;;;;;19.65;4.20;;;9.40;99.90;;;;;;5066476;28;20037;-77
2023/05/29 01:58:27;;;;;;;19.08;3.75;;;9.50;99.90;;;;;;5038490;28;20047;-77
2023/05/29 02:00:54;;;;;;;16.52;3.65;;;9.40;99.90;;;;;;5042076;28;20124;-77
2023/05/29 02:03:20;;;;;;;15.77;3.58;;;9.40;99.90;;;;;;5048461;28;20037;-77
2023/05/29 02:05:46;;;;;;;15.07;3.00;;;9.40;99.90;;;;;;5054356;28;20052;-77
2023/05/29 02:08:12;;;;;;;20.95;3.50;;;9.40;99.90;;;;;;5036038;28;20032;-77
2023/05/29 02:10:38;;;;;;;17.45;3.35;;;9.40;99.90;;;;;;5068904;28;20402;-77
2023/05/29 02:13:04;;;;;;;18.50;3.67;;;9.30;99.90;;;;;;5062586;28;20049;-77
2023/05/29 02:15:29;;;;;;;21.95;4.57;;;9.30;99.90;;;;;;5018488;28;20047;-77
2023/05/29 02:17:55;;;;;;;20.38;3.35;;;9.30;99.90;;;;;;5068474;28;20048;-77
2023/05/29 02:20:21;;;;;;;15.55;3.33;;;9.50;99.90;;;;;;5051467;28;20036;-77
2023/05/29 02:22:47;;;;;;;16.45;3.47;;;9.30;99.90;;;;;;5061025;28;20490;-77
2023/05/29 02:25:12;;;;;;;18.60;3.28;;;9.30;99.90;;;;;;5040847;28;20051;-77
2023/05/29 02:27:38;;;;;;;17.65;3.30;;;9.30;99.90;;;;;;5066453;28;20422;-77
2023/05/29 02:30:05;;;;;;;16.95;3.50;;;9.30;99.90;;;;;;5026540;28;20040;-77
2023/05/29 02:32:31;;;;;;;15.27;3.08;;;9.30;99.90;;;;;;5042706;28;20044;-77
2023/05/29 02:34:57;;;;;;;15.75;3.28;;;9.30;99.90;;;;;;5062454;28;20029;-77
2023/05/29 02:37:25;;;;;;;19.23;3.47;;;9.30;99.90;;;;;;5063954;28;20478;-77
2023/05/29 02:39:51;;;;;;;14.20;3.53;;;9.20;99.90;;;;;;5049119;28;20041;-77
2023/05/29 02:42:17;;;;;;;18.08;3.72;;;9.20;99.90;;;;;;5055558;28;20068;-77
2023/05/29 02:44:43;;;;;;;18.10;3.40;;;9.20;99.90;;;;;;5031990;28;20133;-77
2023/05/29 02:47:09;;;;;;;18.15;3.55;;;9.10;99.90;;;;;;5057537;28;20033;-77
2023/05/29 02:49:35;;;;;;;14.05;2.92;;;9.10;99.90;;;;;;5039832;28;20479;-77
2023/05/29 02:52:00;;;;;;;19.27;3.20;;;9.10;99.90;;;;;;5036428;28;20041;-77
2023/05/29 02:54:26;;;;;;;14.35;2.70;;;9.20;99.90;;;;;;5062613;28;20036;-77
2023/05/29 02:56:52;;;;;;;14.80;3.08;;;9.20;99.90;;;;;;5040373;28;20047;-77
2023/05/29 02:59:18;;;;;;;13.18;2.97;;;9.10;99.90;;;;;;5057659;28;20047;-77
2023/05/29 03:01:45;;;;;;;14.40;3.50;;;9.20;99.90;;;;;;5059705;28;20044;-77
2023/05/29 03:04:11;;;;;;;19.08;3.10;;;9.20;99.90;;;;;;5040261;28;20075;-77
2023/05/29 03:06:36;;;;;;;15.50;2.97;;;9.20;99.90;;;;;;5031998;28;20130;-77
2023/05/29 03:09:04;;;;;;;14.02;2.90;;;9.20;99.90;;;;;;5041923;28;20514;-77
2023/05/29 03:11:31;;;;;;;15.02;2.90;;;9.20;99.90;;;;;;5049762;28;20263;-77
2023/05/29 03:13:57;;;;;;;15.70;2.80;;;9.20;99.90;;;;;;5041657;28;20091;-77
2023/05/29 03:16:22;;;;;;;16.95;3.13;;;9.20;99.90;;;;;;5047704;28;20609;-77
2023/05/29 03:18:48;;;;;;;14.23;3.08;;;9.30;99.90;;;;;;5065841;28;20040;-77
2023/05/29 03:21:14;;;;;;;13.65;2.88;;;9.30;99.90;;;;;;5064522;28;20048;-77
2023/05/29 03:23:39;;;;;;;15.30;3.22;;;9.30;99.90;;;;;;5026202;28;20032;-77
2023/05/29 03:26:05;;;;;;;15.20;3.17;;;9.30;99.90;;;;;;5048207;28;20074;-77
2023/05/29 03:28:31;;;;;;;15.40;3.13;;;9.30;99.90;;;;;;5064617;28;20051;-77
2023/05/29 03:30:57;;;;;;;14.82;3.35;;;9.40;99.90;;;;;;5054396;28;20548;-77
2023/05/29 03:33:23;;;;;;;17.85;3.40;;;9.40;99.90;;;;;;5043527;28;20348;-77
2023/05/29 03:35:49;;;;;;;16.27;3.30;;;9.40;99.90;;;;;;5048918;28;20036;-77
2023/05/29 03:38:14;;;;;;;13.52;3.03;;;9.40;99.90;;;;;;5065627;28;20131;-77
2023/05/29 03:40:40;;;;;;;19.60;3.72;;;9.40;99.90;;;;;;5058663;28;20048;-77
2023/05/29 03:43:06;;;;;;;14.82;3.10;;;9.40;99.90;;;;;;5052671;28;20036;-77
2023/05/29 03:45:32;;;;;;;18.52;3.40;;;9.50;99.90;;;;;;5048708;28;20040;-77
2023/05/29 03:47:57;;;;;;;17.55;3.53;;;9.50;99.90;;;;;;5047722;28;20060;-77
2023/05/29 03:50:23;;;;;;;14.57;3.28;;;9.50;99.90;;;;;;5024095;28;20130;-77
2023/05/29 03:52:49;;;;;;;15.57;3.10;;;9.60;99.90;;;;;;5022145;28;20047;-77
2023/05/29 03:55:15;;;;;;;15.63;3.50;;;9.60;99.90;;;;;;5020558;28;20041;-77
2023/05/29 03:57:41;;;;;;;18.85;4.22;;;9.50;99.90;;;;;;5044314;28;20049;-77
2023/05/29 04:00:11;;;;;;;17.67;3.15;;;9.50;99.90;;;;;;5049707;28;20079;-77
2023/05/29 04:02:38;;;;;;;16.00;2.80;;;9.50;99.90;;;;;;5034225;28;20044;-77
2023/05/29 04:05:06;;;;;;;14.48;2.97;;;9.50;99.90;;;;;;5027557;28;20037;-77
2023/05/29 04:07:32;;;;;;;17.40;3.78;;;9.60;99.90;;;;;;5048705;28;20036;-77
2023/05/29 04:09:58;;;;;;;23.80;3.72;;;9.60;99.90;;;;;;5029731;28;20041;-77
2023/05/29 04:12:23;;;;;;;12.38;2.63;;;9.60;99.90;;;;;;5055889;28;20465;-77
2023/05/29 04:14:49;;;;;;;13.93;3.42;;;9.60;99.90;;;;;;5030641;28;20079;-77
2023/05/29 04:17:15;;;;;;;15.43;3.47;;;9.70;99.90;;;;;;5042857;28;20410;-77
2023/05/29 04:19:40;;;;;;;13.05;2.95;;;9.60;99.90;;;;;;5043478;28;20040;-77
2023/05/29 04:22:06;;;;;;;18.23;3.20;;;9.60;99.90;;;;;;5043974;28;20139;-77
2023/05/29 04:24:33;;;;;;;18.20;3.33;;;9.70;99.90;;;;;;5033039;28;20116;-77
2023/05/29 04:27:01;;;;;;;12.98;2.83;;;9.70;99.90;;;;;;5046982;28;20113;-77
2023/05/29 04:29:28;;;;;;;14.38;3.13;;;9.70;99.90;;;;;;5063183;28;20033;-77
2023/05/29 04:31:55;;;;;;;17.63;3.67;;;9.70;99.90;;;;;;5031215;28;20067;-77
2023/05/29 04:34:21;;;;;;;16.30;3.70;;;9.80;99.90;;;;;;5031970;28;20451;-77
2023/05/29 04:36:47;;;;;;;18.20;3.38;;;9.80;99.90;;;;;;5047285;28;20066;-77
2023/05/29 04:39:13;;;;;;;19.73;4.05;;;9.90;99.90;;;;;;5063982;28;20410;-77
2023/05/29 04:41:40;;;;;;;13.55;3.22;;;9.90;99.90;;;;;;5060035;28;20049;-77
2023/05/29 04:44:07;;;;;;;14.38;3.15;;;10.00;99.90;;;;;;5040165;28;20406;-77
2023/05/29 04:46:34;;;;;;;16.50;3.42;;;10.00;99.90;;;;;;5046013;28;20048;-77
2023/05/29 04:49:02;;;;;;;16.48;3.20;;;10.10;99.90;;;;;;5059739;28;20037;-77
2023/05/29 04:51:29;;;;;;;18.92;3.38;;;10.10;99.90;;;;;;5048987;28;20461;-77
2023/05/29 04:53:56;;;;;;;15.85;3.20;;;10.20;99.90;;;;;;5045360;28;20069;-77
2023/05/29 04:56:22;;;;;;;14.02;2.83;;;10.30;99.90;;;;;;5045749;28;20036;-77
2023/05/29 04:58:48;;;;;;;14.40;3.25;;;10.30;99.90;;;;;;5026905;28;20094;-77
2023/05/29 05:01:14;;;;;;;18.83;3.42;;;10.40;99.90;;;;;;5025165;28;20411;-77
2023/05/29 05:03:43;;;;;;;16.02;3.35;;;10.50;99.90;;;;;;5044287;28;20045;-77
2023/05/29 05:06:09;;;;;;;16.55;3.80;;;10.60;99.90;;;;;;5061045;28;20041;-77
2023/05/29 05:08:35;;;;;;;19.25;4.15;;;10.70;99.90;;;;;;5068530;28;20547;-77
2023/05/29 05:11:01;;;;;;;15.55;3.40;;;10.80;99.90;;;;;;5045544;28;20036;-77
2023/05/29 05:13:27;;;;;;;16.25;3.63;;;10.90;99.90;;;;;;5064602;28;20044;-77
2023/05/29 05:15:53;;;;;;;17.08;3.40;;;11.00;99.90;;;;;;5052940;28;20048;-77
2023/05/29 05:18:20;;;;;;;17.45;3.50;;;11.10;99.90;;;;;;5034019;28;20087;-77
2023/05/29 05:20:46;;;;;;;17.17;3.53;;;11.10;99.90;;;;;;5064575;28;20041;-77
2023/05/29 05:23:12;;;;;;;17.83;3.25;;;11.10;99.90;;;;;;5062340;28;20078;-77
2023/05/29 05:25:38;;;;;;;16.35;3.70;;;11.20;99.90;;;;;;5045649;28;20079;-77
2023/05/29 05:28:04;;;;;;;17.42;3.78;;;11.20;99.90;;;;;;5040277;28;20093;-77
2023/05/29 05:30:31;;;;;;;17.98;3.58;;;11.30;99.90;;;;;;5044569;28;20170;-77
2023/05/29 05:32:57;;;;;;;17.60;3.53;;;11.30;99.90;;;;;;5060258;28;20048;-77
2023/05/29 05:35:24;;;;;;;17.27;3.50;;;11.30;99.90;;;;;;5033092;28;20079;-77
2023/05/29 05:37:49;;;;;;;16.23;3.65;;;11.40;99.90;;;;;;5064401;28;20051;-78
2023/05/29 05:40:15;;;;;;;16.40;4.13;;;11.50;99.90;;;;;;5062415;28;20040;-77
2023/05/29 05:42:41;;;;;;;18.55;3.38;;;11.60;99.90;;;;;;5053366;28;20071;-77
2023/05/29 05:45:07;;;;;;;15.57;3.45;;;11.70;99.90;;;;;;5049152;28;20033;-77
2023/05/29 05:47:33;;;;;;;16.63;3.90;;;11.80;99.90;;;;;;5035067;28;20132;-77
2023/05/29 05:49:59;;;;;;;16.95;3.55;;;11.90;99.90;;;;;;5025332;28;20044;-77
2023/05/29 05:52:31;;;;;;;18.75;3.85;;;12.00;99.90;;;;;;5040198;28;21414;-77
2023/05/29 05:54:57;;;;;;;17.60;3.97;;;12.10;99.90;;;;;;5040833;28;20580;-77
2023/05/29 05:57:22;;;;;;;19.10;4.47;;;12.20;99.90;;;;;;5041318;28;20119;-76
2023/05/29 05:59:48;;;;;;;18.88;3.58;;;12.30;99.90;;;;;;5038982;28;20439;-77
2023/05/29 06:02:14;;;;;;;17.40;3.40;;;12.30;99.90;;;;;;5030262;28;20068;-77
2023/05/29 06:04:40;;;;;;;16.67;3.58;;;12.30;99.90;;;;;;5062653;28;20122;-77
2023/05/29 06:07:06;;;;;;;18.27;4.38;;;12.20;99.90;;;;;;5044512;28;20123;-77
2023/05/29 06:09:32;;;;;;;21.60;4.57;;;12.20;99.90;;;;;;5044777;28;20040;-77
2023/05/29 06:11:58;;;;;;;18.88;3.85;;;12.10;99.90;;;;;;5061481;28;20045;-76
2023/05/29 06:14:24;;;;;;;15.82;3.65;;;12.10;99.90;;;;;;5047682;28;20122;-76
2023/05/29 06:16:50;;;;;;;17.00;4.05;;;12.20;99.90;;;;;;5045610;28;20452;-77
2023/05/29 06:19:16;;;;;;;23.48;4.47;;;12.20;99.90;;;;;;5061696;28;20044;-77
2023/05/29 06:21:42;;;;;;;20.20;3.95;;;12.10;99.90;;;;;;5062905;28;20123;-77
2023/05/29 06:24:08;;;;;;;20.42;4.47;;;12.10;99.90;;;;;;5045022;28;20155;-76
2023/05/29 06:26:34;;;;;;;19.13;4.15;;;12.10;99.90;;;;;;5046424;28;20040;-76
2023/05/29 06:28:59;;;;;;;16.15;3.90;;;12.10;99.90;;;;;;5037577;28;20041;-76
2023/05/29 06:31:25;;;;;;;24.10;4.40;;;12.20;99.90;;;;;;5025248;28;20064;-77
2023/05/29 06:33:51;;;;;;;17.17;3.90;;;12.20;99.90;;;;;;5047990;28;20077;-77
2023/05/29 06:36:17;;;;;;;19.17;4.13;;;12.20;99.90;;;;;;5040911;28;20037;-77
2023/05/29 06:38:47;;;;;;;21.02;3.97;;;12.20;99.90;;;;;;5057475;28;20069;-77
2023/05/29 06:41:13;;;;;;;19.52;4.10;;;12.10;99.90;;;;;;5042000;28;20037;-76
2023/05/29 06:43:39;;;;;;;15.80;4.05;;;12.10;99.90;;;;;;5045757;28;20041;-77
2023/05/29 06:46:04;;;;;;;14.50;3.47;;;12.20;99.90;;;;;;5062823;28;20496;-76
2023/05/29 06:48:37;;;;;;;20.63;4.43;;;12.20;99.90;;;;;;5030600;28;20124;-77
2023/05/29 06:51:08;;;;;;;17.08;3.95;;;12.30;99.90;;;;;;5045291;28;20366;-76
2023/05/29 06:53:37;;;;;;;15.88;3.70;;;12.40;99.90;;;;;;5064586;28;20048;-77
2023/05/29 06:56:05;;;;;;;16.23;4.15;;;12.50;99.90;;;;;;5064120;28;20036;-76
2023/05/29 06:58:31;;;;;;;19.42;4.15;;;12.50;99.90;;;;;;5047701;28;20040;-77
2023/05/29 07:00:57;;;;;;;16.08;3.80;;;12.60;99.90;;;;;;5061563;28;20098;-77
2023/05/29 07:03:25;;;;;;;18.60;4.00;;;12.60;99.90;;;;;;5043865;28;20039;-76
2023/05/29 07:05:50;;;;;;;21.58;4.82;;;12.60;99.90;;;;;;5030679;28;20048;-77
2023/05/29 07:08:16;;;;;;;18.00;4.22;;;12.60;99.90;;;;;;5048174;28;20033;-77
2023/05/29 07:10:42;;;;;;;16.73;4.38;;;12.60;99.90;;;;;;5063543;28;20040;-77
2023/05/29 07:13:08;;;;;;;16.95;4.15;;;12.50;99.90;;;;;;5041550;28;20090;-77
2023/05/29 07:15:34;;;;;;;21.60;4.78;;;12.50;99.90;;;;;;5042948;28;20121;-77
2023/05/29 07:18:00;;;;;;;15.82;3.70;;;12.50;99.90;;;;;;5045744;28;20759;-77
2023/05/29 07:20:26;;;;;;;15.43;4.25;;;12.60;99.90;;;;;;5046293;28;20552;-77
2023/05/29 07:22:52;;;;;;;16.38;4.18;;;12.60;99.90;;;;;;5039014;28;20041;-76
2023/05/29 07:25:17;;;;;;;20.38;3.78;;;12.70;99.90;;;;;;5041869;28;20426;-76
2023/05/29 07:27:44;;;;;;;19.70;4.30;;;12.70;99.90;;;;;;5039773;28;20052;-77
2023/05/29 07:30:10;;;;;;;17.58;3.70;;;12.80;99.90;;;;;;5027287;28;20102;-76
2023/05/29 07:32:36;;;;;;;17.80;3.67;;;12.90;99.90;;;;;;5056070;28;20048;-76
2023/05/29 07:35:02;;;;;;;19.95;4.10;;;13.00;99.90;;;;;;5038550;28;20048;-76
2023/05/29 07:37:29;;;;;;;19.27;4.13;;;13.10;99.90;;;;;;5040882;28;20474;-76
2023/05/29 07:39:55;;;;;;;20.08;4.20;;;13.20;99.90;;;;;;5061874;28;20053;-76
2023/05/29 07:42:20;;;;;;;18.50;4.68;;;13.20;99.90;;;;;;5044590;28;20040;-76
2023/05/29 07:44:47;;;;;;;18.25;3.88;;;13.30;99.90;;;;;;5056069;28;20447;-75
2023/05/29 07:47:13;;;;;;;18.77;3.88;;;13.40;99.90;;;;;;5041943;28;20041;-76
2023/05/29 07:49:39;;;;;;;21.13;4.38;;;13.50;99.90;;;;;;5040056;28;20542;-76
2023/05/29 07:52:05;;;;;;;16.23;3.55;;;13.70;99.90;;;;;;5062589;28;20033;-76
2023/05/29 07:54:32;;;;;;;23.20;4.68;;;13.80;99.90;;;;;;5040725;28;20083;-75
2023/05/29 07:57:02;;;;;;;19.02;4.32;;;13.60;99.90;;;;;;5056237;28;20045;-76
2023/05/29 07:59:29;;;;;;;18.40;3.80;;;13.70;99.90;;;;;;5041545;28;20505;-76
2023/05/29 08:01:57;;;;;;;16.33;4.13;;;13.70;99.90;;;;;;5060952;28;20059;-76
2023/05/29 08:04:24;;;;;;;17.63;4.72;;;13.70;99.90;;;;;;5051299;28;20044;-76
2023/05/29 08:06:50;;;;;;;16.13;3.42;;;13.60;99.90;;;;;;5038432;28;20041;-76
2023/05/29 08:09:17;;;;;;;17.38;3.67;;;13.60;99.90;;;;;;5055249;28;20045;-76
2023/05/29 08:11:45;;;;;;;20.13;4.15;;;13.70;99.90;;;;;;5026775;28;20540;-76
2023/05/29 08:14:11;;;;;;;24.05;4.30;;;13.80;99.90;;;;;;5061036;28;20112;-77
2023/05/29 08:16:37;;;;;;;19.85;4.30;;;13.80;99.90;;;;;;5026828;28;20033;-76
2023/05/29 08:19:03;;;;;;;22.20;4.20;;;13.80;99.90;;;;;;5059585;28;20041;-76
2023/05/29 08:21:31;;;;;;;17.50;4.18;;;13.80;99.90;;;;;;5057930;28;20108;-76
2023/05/29 08:23:58;;;;;;;18.85;4.70;;;13.80;99.90;;;;;;5059657;28;20186;-76
2023/05/29 08:26:23;;;;;;;19.33;4.55;;;13.80;99.90;;;;;;5040397;28;20455;-76
2023/05/29 08:28:50;;;;;;;18.35;4.20;;;13.80;99.90;;;;;;5059456;28;20040;-76
2023/05/29 08:31:16;;;;;;;17.63;3.83;;;13.90;99.90;;;;;;5056157;28;20086;-76
2023/05/29 08:33:42;;;;;;;24.23;4.10;;;13.80;99.90;;;;;;5043403;28;20049;-76
2023/05/29 08:36:08;;;;;;;18.60;4.78;;;13.80;99.90;;;;;;5040143;28;20564;-76
2023/05/29 08:38:35;;;;;;;17.13;3.50;;;13.80;99.90;;;;;;5050625;28;20042;-76
2023/05/29 08:41:01;;;;;;;21.05;4.05;;;13.90;99.90;;;;;;5060220;28;20125;-77
2023/05/29 08:43:31;;;;;;;18.35;4.28;;;13.80;99.90;;;;;;5054511;28;20029;-76
2023/05/29 08:46:00;;;;;;;17.45;4.10;;;13.90;99.90;;;;;;5059185;28;20038;-76
2023/05/29 08:48:28;;;;;;;20.45;4.20;;;13.80;99.90;;;;;;5058841;28;20033;-76
2023/05/29 08:50:56;;;;;;;21.48;4.63;;;13.80;99.90;;;;;;5055141;28;20048;-76
2023/05/29 08:53:23;;;;;;;19.65;4.53;;;13.90;99.90;;;;;;5025770;28;20052;-76
2023/05/29 08:55:52;;;;;;;19.00;5.00;;;13.90;99.90;;;;;;5024346;28;20520;-76
2023/05/29 08:58:21;;;;;;;20.13;4.57;;;13.90;99.90;;;;;;5053834;28;20051;-76
2023/05/29 09:00:48;;;;;;;18.40;4.10;;;13.90;99.90;;;;;;4710254;28;10000098;-76
2023/05/29 09:03:15;;;;;;;19.42;4.13;;;13.90;99.90;;;;;;5052623;28;20041;-77
2023/05/29 09:05:41;;;;;;;17.25;3.95;;;13.90;99.90;;;;;;5060417;28;20123;-77
2023/05/29 09:08:14;;;;;;;15.65;3.55;;;14.00;99.90;;;;;;5062485;28;20044;-77
2023/05/29 09:10:44;;;;;;;19.13;4.10;;;14.10;99.90;;;;;;5062538;28;20047;-77
2023/05/29 09:13:11;;;;;;;18.52;4.45;;;14.10;99.90;;;;;;5042259;28;20041;-76
2023/05/29 09:15:39;;;;;;;22.45;3.95;;;14.20;99.90;;;;;;5039064;28;20064;-76
2023/05/29 09:18:06;;;;;;;22.77;4.00;;;14.30;99.90;;;;;;5063958;28;20044;-77
2023/05/29 09:20:32;;;;;;;15.85;4.05;;;14.30;99.90;;;;;;5040169;28;20047;-76
2023/05/29 09:23:00;;;;;;;14.45;3.58;;;14.30;99.90;;;;;;5059935;28;20037;-76
2023/05/29 09:25:28;;;;;;;18.23;4.10;;;14.30;99.90;;;;;;5050325;28;20029;-76
2023/05/29 09:28:07;;;;;;;21.95;4.00;;;14.40;99.90;;;;;;5046740;28;20587;-77
2023/05/29 09:30:41;;;;;;;20.33;3.78;;;14.40;99.90;;;;;;5053236;28;20127;-77
2023/05/29 09:33:12;;;;;;;24.52;4.80;;;14.40;99.90;;;;;;5056860;28;20064;-77
2023/05/29 09:35:43;;;;;;;20.67;4.47;;;14.40;99.90;;;;;;5063400;28;20116;-77
2023/05/29 09:38:11;;;;;;;20.35;4.30;;;14.50;99.90;;;;;;5048729;28;20040;-76
2023/05/29 09:40:42;;;;;;;19.45;3.85;;;14.60;99.90;;;;;;5037867;28;20482;-77
2023/05/29 09:43:19;;;;;;;18.13;3.83;;;14.70;99.90;;;;;;5044484;28;20044;-76
2023/05/29 09:45:47;;;;;;;20.65;4.53;;;14.90;99.90;;;;;;5040138;28;20074;-76
2023/05/29 09:48:17;;;;;;;14.35;3.72;;;15.00;99.90;;;;;;5025426;28;20029;-76
2023/05/29 09:50:50;;;;;;;18.02;4.20;;;15.20;99.90;;;;;;5044884;28;20114;-77
2023/05/29 09:53:21;;;;;;;21.38;4.32;;;15.20;99.90;;;;;;5057814;28;20093;-76
2023/05/29 09:55:47;;;;;;;18.55;3.80;;;15.20;99.90;;;;;;5051256;28;20041;-76
2023/05/29 09:58:20;;;;;;;18.17;4.35;;;15.30;99.90;;;;;;5059094;28;20048;-77
2023/05/29 10:00:47;;;;;;;23.23;3.92;;;15.30;99.90;;;;;;5044196;28;20044;-76
2023/05/29 10:03:13;;;;;;;17.42;4.05;;;15.20;99.90;;;;;;5045868;28;20537;-77
2023/05/29 10:05:43;;;;;;;16.25;3.70;;;15.20;99.90;;;;;;5050751;28;20037;-76
2023/05/29 10:08:14;;;;;;;17.58;4.05;;;15.40;99.90;;;;;;5069394;28;20098;-76
2023/05/29 10:10:47;;;;;;;15.10;3.60;;;15.50;99.90;;;;;;5053988;28;20041;-76
2023/05/29 10:13:14;;;;;;;19.60;3.83;;;15.50;99.90;;;;;;5069601;28;20036;-75
2023/05/29 10:15:45;;;;;;;20.38;4.25;;;15.50;99.90;;;;;;5054668;28;20498;-76
2023/05/29 10:18:22;;;;;;;18.27;4.05;;;15.60;99.90;;;;;;5060735;28;20048;-76
2023/05/29 10:20:58;;;;;;;19.38;4.10;;;15.60;99.90;;;;;;5070182;28;20080;-76
2023/05/29 10:23:25;;;;;;;19.08;3.72;;;15.50;99.90;;;;;;5048548;28;20041;-76
2023/05/29 10:26:04;;;;;;;16.35;3.75;;;15.30;99.90;;;;;;5045152;28;20486;-76
2023/05/29 10:28:30;;;;;;;16.75;3.50;;;15.40;99.90;;;;;;5048908;28;21426;-76
2023/05/29 10:31:18;;;;;;;13.80;3.42;;;15.40;99.90;;;;;;5040688;28;20429;-76
2023/05/29 10:33:59;;;;;;;16.40;3.70;;;15.40;99.90;;;;;;5051078;28;20079;-76
2023/05/29 10:36:33;;;;;;;16.95;4.38;;;15.40;99.90;;;;;;5057910;28;20525;-76
2023/05/29 10:38:58;;;;;;;18.13;3.95;;;15.30;99.90;;;;;;5063807;28;20037;-76
2023/05/29 10:41:27;;;;;;;22.55;3.83;;;15.30;99.90;;;;;;5067822;28;20040;-76
2023/05/29 10:43:57;;;;;;;18.75;4.65;;;15.30;99.90;;;;;;5055233;28;20041;-77
2023/05/29 10:46:42;;;;;;;17.05;3.92;;;15.20;99.90;;;;;;5052812;28;20415;-76
2023/05/29 10:49:18;;;;;;;20.83;4.05;;;15.20;99.90;;;;;;5055319;28;20106;-76
2023/05/29 10:51:44;;;;;;;18.17;4.03;;;15.20;99.90;;;;;;5037159;28;20036;-76
2023/05/29 10:54:10;;;;;;;15.60;3.90;;;15.30;99.90;;;;;;5032140;28;20051;-76
2023/05/29 10:56:37;;;;;;;14.52;3.83;;;15.40;99.90;;;;;;5050113;28;20037;-76
2023/05/29 10:59:03;;;;;;;18.75;4.15;;;15.50;99.90;;;;;;5062030;28;20041;-76
2023/05/29 11:01:30;;;;;;;15.82;3.90;;;15.50;99.90;;;;;;5052788;28;20105;-76
2023/05/29 11:04:17;;;;;;;15.60;3.08;;;15.60;99.90;;;;;;5042211;28;20510;-77
2023/05/29 11:06:43;;;;;;;21.60;4.30;;;15.60;99.90;;;;;;5039112;28;20043;-77
2023/05/29 11:09:34;;;;;;;14.43;3.55;;;15.50;99.90;;;;;;5055324;28;20051;-76
2023/05/29 11:12:36;;;;;;;15.23;3.78;;;15.50;99.90;;;;;;5037342;28;20120;-76
2023/05/29 11:15:19;;;;;;;16.70;3.92;;;15.40;99.90;;;;;;5048535;28;20091;-76
2023/05/29 11:17:46;;;;;;;15.93;3.75;;;15.40;99.90;;;;;;5037433;28;20044;-76
2023/05/29 11:20:33;;;;;;;15.98;3.33;;;15.40;99.90;;;;;;5057489;28;20084;-76
2023/05/29 11:22:59;;;;;;;14.93;3.50;;;15.50;99.90;;;;;;5057607;28;20479;-76
2023/05/29 11:25:26;;;;;;;18.80;3.85;;;15.60;99.90;;;;;;5068864;28;20072;-77
2023/05/29 11:27:52;;;;;;;17.65;3.60;;;15.60;99.90;;;;;;5050924;28;20052;-77
2023/05/29 11:30:18;;;;;;;15.02;3.75;;;15.50;99.90;;;;;;5064981;28;20131;-76
2023/05/29 11:32:46;;;;;;;20.60;4.00;;;15.50;99.90;;;;;;5059945;28;20045;-77
2023/05/29 11:35:13;;;;;;;16.77;4.00;;;15.30;99.90;;;;;;5033608;28;20043;-76
2023/05/29 11:37:42;;;;;;;17.65;3.78;;;15.40;99.90;;;;;;5066169;28;20402;-76
2023/05/29 11:40:11;;;;;;;18.13;4.05;;;15.50;99.90;;;;;;5056796;28;20041;-76
2023/05/29 11:42:45;;;;;;;18.45;3.95;;;15.50;99.90;;;;;;5045199;28;20063;-76
2023/05/29 11:45:19;;;;;;;19.48;3.95;;;15.60;99.90;;;;;;5050397;28;20435;-76
2023/05/29 11:48:02;;;;;;;19.65;3.97;;;15.60;99.90;;;;;;5068827;28;20040;-76
2023/05/29 11:50:30;;;;;;;15.60;3.72;;;15.80;99.90;;;;;;5047295;28;20066;-76
2023/05/29 11:52:57;;;;;;;19.23;3.75;;;15.90;99.90;;;;;;5059835;28;20143;-76
2023/05/29 11:55:24;;;;;;;14.52;3.65;;;16.10;99.90;;;;;;5040789;28;20056;-75
2023/05/29 11:57:55;;;;;;;16.02;3.63;;;16.10;99.90;;;;;;5048227;28;20036;-75
2023/05/29 12:00:21;;;;;;;23.30;4.00;;;16.00;99.90;;;;;;5053005;28;20068;-76
2023/05/29 12:02:49;;;;;;;11.60;3.00;;;16.00;99.90;;;;;;5048119;28;20045;-76
2023/05/29 12:05:18;;;;;;;17.52;3.97;;;15.90;99.90;;;;;;5045164;28;20542;-76
2023/05/29 12:07:50;;;;;;;17.73;4.18;;;15.90;99.90;;;;;;5032525;28;20562;-74
2023/05/29 12:10:17;;;;;;;16.70;3.97;;;16.00;99.90;;;;;;5064221;28;20064;-74
2023/05/29 12:12:52;;;;;;;18.45;3.72;;;16.20;99.90;;;;;;5050247;28;20070;-76
2023/05/29 12:15:18;;;;;;;17.13;3.65;;;16.10;99.90;;;;;;5051274;28;20373;-76
2023/05/29 12:17:45;;;;;;;16.80;3.80;;;16.10;99.90;;;;;;5067429;28;20036;-75
2023/05/29 12:20:13;;;;;;;14.43;3.22;;;16.00;99.90;;;;;;5031957;28;20032;-76
2023/05/29 12:22:41;;;;;;;17.05;4.13;;;16.20;99.90;;;;;;5033611;28;20122;-76
2023/05/29 12:25:10;;;;;;;15.73;4.03;;;16.20;99.90;;;;;;5051186;28;20294;-76
2023/05/29 12:27:48;;;;;;;14.90;3.30;;;16.10;99.90;;;;;;5051993;28;20076;-76
2023/05/29 12:30:19;;;;;;;13.32;3.35;;;16.10;99.90;;;;;;5056482;28;20175;-76
2023/05/29 12:32:51;;;;;;;13.85;3.08;;;15.90;99.90;;;;;;5031539;28;20049;-75
2023/05/29 12:35:28;;;;;;;15.60;3.70;;;15.90;99.90;;;;;;5047729;28;20037;-76
2023/05/29 12:37:58;;;;;;;18.52;3.53;;;15.90;99.90;;;;;;5031377;28;20048;-75
2023/05/29 12:40:34;;;;;;;13.32;3.97;;;16.00;99.90;;;;;;5060336;28;20055;-75
2023/05/29 12:43:05;;;;;;;14.00;2.90;;;16.00;99.90;;;;;;5044668;28;20402;-75
2023/05/29 12:45:33;;;;;;;16.55;3.42;;;16.20;99.90;;;;;;5061918;28;20052;-76